TimePST,TemperatureF,Dew PointF,Humidity,Sea Level PressureIn,VisibilityMPH,Wind Direction,Wind SpeedMPH,Gust SpeedMPH,PrecipitationIn,Events,Conditions,WindDirDegrees,DateUTC
12:54 AM,46.9,12.0,24,30.06,10.0,Variable,4.6,-,N/A,,Clear,0,2014-01-17 08:54:00
1:54 AM,44.1,12.9,28,30.06,10.0,Calm,Calm,-,N/A,,Clear,0,2014-01-17 09:54:00
2:54 AM,46.9,12.9,25,30.06,10.0,West,4.6,-,N/A,,Clear,270,2014-01-17 10:54:00
3:54 AM,44.1,14.0,30,30.07,10.0,North,3.5,-,N/A,,Clear,360,2014-01-17 11:54:00
4:54 AM,43.0,15.1,32,30.08,10.0,West,4.6,-,N/A,,Unknown,280,2014-01-17 12:54:00
5:54 AM,42.1,14.0,32,30.08,10.0,Calm,Calm,-,N/A,,Clear,0,2014-01-17 13:54:00
6:54 AM,39.9,16.0,38,30.09,10.0,Calm,Calm,-,N/A,,Clear,0,2014-01-17 14:54:00
7:54 AM,51.1,17.1,26,30.10,9.0,Calm,Calm,-,N/A,,Clear,0,2014-01-17 15:54:00
8:54 AM,68.0,18.0,15,30.12,9.0,West,3.5,-,N/A,,Clear,260,2014-01-17 16:54:00
9:54 AM,80.1,5.0,6,30.11,9.0,ENE,5.8,-,N/A,,Clear,60,2014-01-17 17:54:00
10:54 AM,82.9,-0.9,4,30.09,10.0,Variable,3.5,-,N/A,,Clear,0,2014-01-17 18:54:00
11:54 AM,86.0,-0.9,4,30.05,10.0,SE,4.6,-,N/A,,Clear,130,2014-01-17 19:54:00
12:54 PM,84.9,9.0,6,30.02,9.0,SW,6.9,-,N/A,,Partly Cloudy,230,2014-01-17 20:54:00
1:54 PM,82.9,5.0,5,30.01,9.0,WSW,8.1,-,N/A,,Partly Cloudy,240,2014-01-17 21:54:00
2:54 PM,82.9,6.1,5,30.01,10.0,WSW,8.1,-,N/A,,Partly Cloudy,250,2014-01-17 22:54:00
3:54 PM,79.0,12.9,8,30.01,10.0,WSW,5.8,-,N/A,,Partly Cloudy,240,2014-01-17 23:54:00
4:54 PM,73.0,19.9,14,30.02,9.0,South,5.8,-,N/A,,Partly Cloudy,190,2014-01-18 00:54:00
5:54 PM,66.0,33.1,29,30.05,6.0,Variable,3.5,-,N/A,,Haze,0,2014-01-18 01:54:00
6:54 PM,57.9,41.0,53,30.06,8.0,Calm,Calm,-,N/A,,Clear,0,2014-01-18 02:54:00
7:54 PM,54.0,37.0,53,30.06,7.0,NE,3.5,-,N/A,,Clear,40,2014-01-18 03:54:00
8:54 PM,50.0,28.9,44,30.07,9.0,Calm,Calm,-,N/A,,Clear,0,2014-01-18 04:54:00
9:54 PM,48.0,26.1,42,30.08,10.0,Calm,Calm,-,N/A,,Clear,0,2014-01-18 05:54:00
10:54 PM,44.1,24.1,45,30.07,10.0,Calm,Calm,-,N/A,,Clear,0,2014-01-18 06:54:00
11:54 PM,39.9,24.1,53,30.06,10.0,Calm,Calm,-,N/A,,Clear,0,2014-01-18 07:54:00